Time;durP1;ratioP1;P1;durP2;ratioP2;P2;SDS_P1;SDS_P2;PMS_P1;PMS_P2;Temp;Humidity;BMP_temperature;BMP_pressure;BME280_temperature;BME280_humidity;BME280_pressure;Samples;Min_cycle;Max_cycle;Signal;HPM_P1;HPM_P2
2023/07/12 00:00:21;;;;;;;5.47;4.85;;;22.90;99.90;;;;;;5073778;28;20304;-65
2023/07/12 00:02:49;;;;;;;6.30;5.70;;;22.80;99.90;;;;;;5070673;28;20232;-65
2023/07/12 00:05:17;;;;;;;6.05;5.07;;;22.80;99.90;;;;;;5072057;28;20595;-65
2023/07/12 00:07:46;;;;;;;5.60;5.10;;;22.70;99.90;;;;;;5068881;28;20232;-65
2023/07/12 00:10:16;;;;;;;7.07;5.07;;;22.70;99.90;;;;;;5062941;28;20228;-65
2023/07/12 00:12:45;;;;;;;7.20;5.18;;;22.70;99.90;;;;;;5067790;28;20227;-65
2023/07/12 00:15:15;;;;;;;6.03;5.43;;;22.80;99.90;;;;;;5067678;28;20217;-65
2023/07/12 00:17:43;;;;;;;7.53;5.45;;;22.70;99.90;;;;;;5068666;28;20220;-65
2023/07/12 00:20:20;;;;;;;7.47;5.80;;;22.70;99.90;;;;;;5074636;28;20250;-65
2023/07/12 00:22:48;;;;;;;7.00;5.35;;;22.70;99.90;;;;;;5073569;28;20243;-65
2023/07/12 00:25:16;;;;;;;5.15;4.65;;;22.70;99.90;;;;;;5071027;28;20248;-65
2023/07/12 00:27:45;;;;;;;8.20;4.82;;;22.60;99.90;;;;;;5073463;28;20197;-65
2023/07/12 00:30:16;;;;;;;7.57;5.43;;;22.60;99.90;;;;;;5058663;28;20229;-65
2023/07/12 00:32:44;;;;;;;7.32;5.60;;;22.60;99.90;;;;;;5064837;28;20285;-65
2023/07/12 00:35:15;;;;;;;5.57;4.80;;;22.50;99.90;;;;;;5063262;28;20221;-65
2023/07/12 00:37:43;;;;;;;9.77;5.60;;;22.50;99.90;;;;;;5067250;28;20201;-65
2023/07/12 00:40:29;;;;;;;7.18;5.22;;;22.50;99.90;;;;;;5072370;28;20205;-65
2023/07/12 00:43:01;;;;;;;8.85;5.18;;;22.50;99.90;;;;;;5061360;28;20232;-65
2023/07/12 00:45:28;;;;;;;4.85;4.35;;;22.40;99.90;;;;;;5068745;28;20240;-65
2023/07/12 00:47:56;;;;;;;6.53;4.82;;;22.30;99.90;;;;;;5069860;28;20209;-65
2023/07/12 00:50:25;;;;;;;6.40;4.50;;;22.40;99.90;;;;;;5075814;28;20205;-65
2023/07/12 00:52:52;;;;;;;6.85;4.82;;;22.40;99.90;;;;;;5073997;28;20224;-65
2023/07/12 00:55:56;;;;;;;6.75;4.50;;;22.40;99.90;;;;;;5071397;28;20267;-65
2023/07/12 00:58:26;;;;;;;5.13;4.50;;;22.40;99.90;;;;;;5065311;28;20239;-65
2023/07/12 01:00:54;;;;;;;6.47;4.68;;;22.40;99.90;;;;;;5070324;28;20323;-65
2023/07/12 01:03:22;;;;;;;8.52;4.85;;;22.30;99.90;;;;;;5074287;28;20631;-65
2023/07/12 01:05:50;;;;;;;6.00;4.32;;;22.20;99.90;;;;;;5066920;28;20205;-65
2023/07/12 01:08:17;;;;;;;5.22;4.65;;;22.20;99.90;;;;;;5069491;28;20225;-65
2023/07/12 01:10:45;;;;;;;5.30;4.18;;;22.20;99.90;;;;;;5060611;28;20259;-65
2023/07/12 01:13:13;;;;;;;4.78;4.10;;;22.20;99.90;;;;;;5075361;28;20643;-65
2023/07/12 01:15:42;;;;;;;5.20;4.70;;;22.20;99.90;;;;;;5072711;28;20328;-65
2023/07/12 01:18:10;;;;;;;7.45;4.90;;;22.20;99.90;;;;;;5071261;28;20238;-65
2023/07/12 01:20:39;;;;;;;7.13;4.57;;;22.20;99.90;;;;;;5063007;28;20201;-65
2023/07/12 01:23:08;;;;;;;4.65;4.13;;;22.20;99.90;;;;;;5062792;28;20233;-65
2023/07/12 01:25:38;;;;;;;5.72;4.30;;;22.20;99.90;;;;;;5072393;28;20305;-65
2023/07/12 01:28:06;;;;;;;5.07;4.18;;;22.20;99.90;;;;;;5074916;28;20291;-65
2023/07/12 01:30:34;;;;;;;5.07;4.35;;;22.20;99.90;;;;;;5072635;28;20263;-65
2023/07/12 01:33:03;;;;;;;8.18;4.63;;;22.10;99.90;;;;;;5070903;28;20221;-65
2023/07/12 01:35:31;;;;;;;6.28;4.60;;;22.10;99.90;;;;;;5065173;28;20229;-65
2023/07/12 01:37:59;;;;;;;5.18;4.50;;;22.10;99.90;;;;;;5071585;28;21017;-65
2023/07/12 01:40:28;;;;;;;8.30;4.35;;;22.10;99.90;;;;;;5059465;28;20229;-65
2023/07/12 01:42:56;;;;;;;8.77;5.03;;;22.10;99.90;;;;;;5065304;28;20300;-64
2023/07/12 01:45:24;;;;;;;6.53;4.55;;;22.10;99.90;;;;;;5062138;28;20232;-67
2023/07/12 01:47:52;;;;;;;5.50;4.60;;;22.10;99.90;;;;;;5068218;28;20227;-67
2023/07/12 01:50:20;;;;;;;4.40;3.97;;;22.10;99.90;;;;;;5068112;28;20274;-65
2023/07/12 01:52:48;;;;;;;8.02;4.28;;;22.00;99.90;;;;;;5069623;28;20336;-63
2023/07/12 01:55:16;;;;;;;9.35;4.03;;;22.00;99.90;;;;;;5067020;28;20205;-64
2023/07/12 01:57:45;;;;;;;9.50;4.13;;;22.00;99.90;;;;;;5052951;28;20722;-63
2023/07/12 02:00:14;;;;;;;7.78;4.22;;;22.00;99.90;;;;;;5061098;28;20236;-64
2023/07/12 02:02:42;;;;;;;5.93;4.22;;;21.90;99.90;;;;;;5069576;28;20224;-64
2023/07/12 02:05:10;;;;;;;7.40;4.30;;;21.90;99.90;;;;;;5068155;28;20676;-62
2023/07/12 02:07:38;;;;;;;6.95;4.18;;;22.00;99.90;;;;;;5065637;28;20239;-63
2023/07/12 02:10:11;;;;;;;5.85;3.67;;;22.00;99.90;;;;;;5053332;28;20228;-64
2023/07/12 02:12:39;;;;;;;5.18;4.10;;;21.90;99.90;;;;;;5071575;28;20469;-65
2023/07/12 02:15:10;;;;;;;7.68;4.05;;;22.00;99.90;;;;;;5072692;28;20262;-64
2023/07/12 02:17:38;;;;;;;8.52;3.92;;;21.90;99.90;;;;;;5062864;28;20263;-63
2023/07/12 02:20:08;;;;;;;7.63;3.90;;;21.90;99.90;;;;;;5065947;28;20200;-63
2023/07/12 02:22:37;;;;;;;4.68;3.53;;;21.80;99.90;;;;;;5055627;28;20618;-64
2023/07/12 02:25:05;;;;;;;4.63;3.70;;;21.90;99.90;;;;;;5052415;28;20278;-64
2023/07/12 02:27:33;;;;;;;8.85;3.67;;;21.90;99.90;;;;;;5066186;28;20235;-63
2023/07/12 02:30:01;;;;;;;5.53;3.85;;;21.90;99.90;;;;;;5053265;28;20248;-63
2023/07/12 02:32:30;;;;;;;5.97;3.85;;;21.90;99.90;;;;;;5069777;28;20243;-64
2023/07/12 02:34:58;;;;;;;7.60;4.25;;;21.90;99.90;;;;;;5070309;28;20200;-64
2023/07/12 02:37:26;;;;;;;5.35;3.83;;;21.90;99.90;;;;;;5063820;28;20221;-64
2023/07/12 02:39:54;;;;;;;10.90;3.60;;;21.90;99.90;;;;;;5066303;28;20228;-64
2023/07/12 02:42:22;;;;;;;6.95;3.92;;;21.90;99.90;;;;;;5064365;28;20233;-66
2023/07/12 02:44:52;;;;;;;6.15;3.67;;;21.90;99.90;;;;;;5062512;28;20248;-63
2023/07/12 02:47:19;;;;;;;3.95;3.58;;;21.80;99.90;;;;;;5062957;28;20197;-63
2023/07/12 02:49:49;;;;;;;7.25;3.78;;;21.90;99.90;;;;;;5056587;28;20223;-63
2023/07/12 02:52:17;;;;;;;5.95;4.18;;;21.80;99.90;;;;;;5058917;28;20208;-63
2023/07/12 02:54:45;;;;;;;8.07;3.92;;;21.70;99.90;;;;;;5069426;28;20691;-63
2023/07/12 02:57:14;;;;;;;5.93;3.40;;;21.70;99.90;;;;;;5065076;28;20253;-63
2023/07/12 02:59:42;;;;;;;5.60;4.25;;;21.70;99.90;;;;;;5060089;28;20197;-63
2023/07/12 03:02:12;;;;;;;9.70;3.65;;;21.70;99.90;;;;;;5062072;28;20284;-63
2023/07/12 03:04:40;;;;;;;9.10;3.92;;;21.70;99.90;;;;;;5061647;28;20229;-63
2023/07/12 03:07:09;;;;;;;5.97;3.53;;;21.70;99.90;;;;;;5059873;28;20198;-64
2023/07/12 03:09:38;;;;;;;7.68;3.70;;;21.70;99.90;;;;;;5062722;28;20223;-64
2023/07/12 03:12:07;;;;;;;8.88;4.07;;;21.70;99.90;;;;;;5067809;28;20262;-64
2023/07/12 03:14:36;;;;;;;6.45;4.13;;;21.70;99.90;;;;;;5069542;28;20217;-70
2023/07/12 03:17:05;;;;;;;6.55;3.88;;;21.70;99.90;;;;;;5068575;28;20248;-63
2023/07/12 03:19:35;;;;;;;9.35;4.20;;;21.70;99.90;;;;;;5066976;28;20307;-70
2023/07/12 03:22:03;;;;;;;5.68;4.45;;;21.70;99.90;;;;;;5060038;28;20286;-67
2023/07/12 03:24:32;;;;;;;5.13;3.97;;;21.60;99.90;;;;;;5071539;28;20745;-67
2023/07/12 03:27:00;;;;;;;7.70;3.83;;;21.60;99.90;;;;;;5062638;28;20221;-64
2023/07/12 03:29:28;;;;;;;5.97;4.18;;;21.60;99.90;;;;;;5063121;28;20243;-64
2023/07/12 03:31:56;;;;;;;6.68;3.97;;;21.60;99.90;;;;;;5068792;28;20266;-63
2023/07/12 03:34:24;;;;;;;7.15;4.03;;;21.60;99.90;;;;;;5073884;28;20247;-63
2023/07/12 03:36:52;;;;;;;5.43;3.60;;;21.60;99.90;;;;;;5065568;28;20262;-63
2023/07/12 03:39:20;;;;;;;10.30;4.35;;;21.60;99.90;;;;;;5072933;28;20782;-64
2023/07/12 03:41:49;;;;;;;5.45;3.70;;;21.60;99.90;;;;;;5074296;28;20274;-66
2023/07/12 03:44:17;;;;;;;7.35;4.20;;;21.60;99.90;;;;;;5069880;28;20328;-63
2023/07/12 03:46:45;;;;;;;7.60;4.78;;;21.60;99.90;;;;;;5057327;28;20247;-64
2023/07/12 03:49:13;;;;;;;4.93;3.88;;;21.60;99.90;;;;;;5068234;28;20205;-64
2023/07/12 03:51:41;;;;;;;8.27;4.00;;;21.60;99.90;;;;;;5070026;28;20258;-63
2023/07/12 03:54:08;;;;;;;7.13;4.15;;;21.60;99.90;;;;;;5066258;28;20734;-64
2023/07/12 03:56:36;;;;;;;7.50;3.95;;;21.60;99.90;;;;;;5065034;28;20260;-64
2023/07/12 03:59:06;;;;;;;8.15;4.53;;;21.50;99.90;;;;;;5062471;28;20251;-65
2023/07/12 04:01:34;;;;;;;8.90;3.60;;;21.60;99.90;;;;;;5064959;28;20244;-67
2023/07/12 04:04:03;;;;;;;7.05;4.25;;;21.50;99.90;;;;;;5070641;28;20256;-66
2023/07/12 04:06:31;;;;;;;4.70;3.88;;;21.50;99.90;;;;;;5063765;28;20205;-68
2023/07/12 04:08:59;;;;;;;6.90;4.10;;;21.60;99.90;;;;;;5063315;28;20201;-68
2023/07/12 04:11:28;;;;;;;7.05;3.92;;;21.60;99.90;;;;;;5060323;28;20201;-67
2023/07/12 04:13:55;;;;;;;11.35;4.45;;;21.60;99.90;;;;;;5072307;28;20220;-64
2023/07/12 04:16:25;;;;;;;9.50;4.55;;;21.60;99.90;;;;;;5062697;28;20254;-64
2023/07/12 04:18:53;;;;;;;6.63;4.28;;;21.70;99.90;;;;;;5068764;28;20208;-64
2023/07/12 04:21:21;;;;;;;7.13;3.90;;;21.70;99.90;;;;;;5072213;28;20197;-64
2023/07/12 04:23:49;;;;;;;6.70;4.47;;;21.70;99.90;;;;;;5065943;28;20224;-64
2023/07/12 04:26:20;;;;;;;5.88;4.07;;;21.70;99.90;;;;;;5065198;28;20214;-66
2023/07/12 04:28:50;;;;;;;11.25;5.10;;;21.80;99.90;;;;;;5068656;28;20205;-64
2023/07/12 04:31:19;;;;;;;9.35;5.53;;;21.80;99.90;;;;;;5061627;28;20233;-63
2023/07/12 04:33:48;;;;;;;7.97;4.72;;;21.80;99.90;;;;;;5066274;28;20227;-63
2023/07/12 04:36:17;;;;;;;5.45;4.78;;;21.80;99.90;;;;;;5067769;28;20313;-63
2023/07/12 04:38:45;;;;;;;6.25;4.90;;;21.80;99.90;;;;;;5063592;28;20253;-67
2023/07/12 04:41:13;;;;;;;7.55;4.78;;;21.80;99.90;;;;;;5064258;28;20274;-63
2023/07/12 04:43:42;;;;;;;9.10;4.68;;;21.80;99.90;;;;;;5071261;28;20608;-64
2023/07/12 04:46:09;;;;;;;11.02;5.00;;;21.80;99.90;;;;;;5066951;28;20204;-67
2023/07/12 04:48:37;;;;;;;9.90;4.90;;;21.90;99.90;;;;;;5063261;28;20229;-63
2023/07/12 04:51:07;;;;;;;5.28;4.75;;;21.90;99.90;;;;;;5062773;28;20236;-64
2023/07/12 04:53:35;;;;;;;9.90;4.90;;;21.90;99.90;;;;;;5063720;28;20275;-63
2023/07/12 04:56:03;;;;;;;7.70;4.53;;;21.90;99.90;;;;;;5070659;28;20287;-64
2023/07/12 04:58:31;;;;;;;6.47;4.60;;;22.00;99.90;;;;;;5066792;28;20217;-63
2023/07/12 05:00:59;;;;;;;10.18;5.43;;;22.00;99.90;;;;;;5060329;28;20229;-65
2023/07/12 05:03:27;;;;;;;6.38;5.35;;;21.90;99.90;;;;;;5061212;28;20281;-62
2023/07/12 05:05:58;;;;;;;11.13;4.63;;;21.90;99.90;;;;;;5062788;28;20281;-63
2023/07/12 05:08:41;;;;;;;11.45;4.75;;;22.00;99.90;;;;;;5064314;28;20197;-62
2023/07/12 05:11:09;;;;;;;9.35;4.70;;;22.10;99.90;;;;;;5063798;28;20197;-63
2023/07/12 05:13:38;;;;;;;8.10;5.00;;;22.20;99.90;;;;;;5063612;28;20593;-63
2023/07/12 05:16:06;;;;;;;13.13;4.95;;;22.20;99.90;;;;;;5064208;28;20231;-64
2023/07/12 05:18:34;;;;;;;12.65;4.53;;;22.30;99.90;;;;;;5062495;28;20221;-58
2023/07/12 05:21:02;;;;;;;10.07;5.03;;;22.30;99.90;;;;;;5062516;28;20212;-57
2023/07/12 05:23:30;;;;;;;10.98;4.75;;;22.30;99.90;;;;;;5060446;28;20232;-56
2023/07/12 05:25:59;;;;;;;7.80;4.43;;;22.20;99.90;;;;;;5070308;28;20209;-56
2023/07/12 05:28:27;;;;;;;5.88;4.10;;;22.30;99.90;;;;;;5071767;28;20698;-60
2023/07/12 05:30:55;;;;;;;7.25;4.72;;;22.30;99.90;;;;;;5062231;28;20258;-60
2023/07/12 05:33:23;;;;;;;13.18;5.00;;;22.40;99.90;;;;;;5064670;28;20225;-59
2023/07/12 05:35:51;;;;;;;6.93;4.53;;;22.40;99.90;;;;;;5063166;28;20774;-56
2023/07/12 05:38:19;;;;;;;13.75;5.28;;;22.60;99.90;;;;;;5056157;28;20283;-55
2023/07/12 05:40:47;;;;;;;9.70;5.25;;;22.60;99.90;;;;;;5068809;28;20205;-56
2023/07/12 05:43:22;;;;;;;8.43;4.80;;;22.60;99.90;;;;;;5058188;28;20304;-59
2023/07/12 05:45:51;;;;;;;12.63;5.25;;;22.60;99.90;;;;;;5060937;28;20201;-56
2023/07/12 05:48:19;;;;;;;8.10;5.28;;;22.60;99.90;;;;;;5056929;28;20232;-56
2023/07/12 05:50:49;;;;;;;10.23;6.10;;;22.70;99.90;;;;;;5069823;28;20197;-59
2023/07/12 05:53:17;;;;;;;16.13;6.47;;;22.70;99.90;;;;;;5071250;28;20327;-57
2023/07/12 05:55:45;;;;;;;12.75;6.35;;;22.70;99.90;;;;;;5068480;28;20280;-57
2023/07/12 05:58:13;;;;;;;10.48;6.63;;;22.80;99.90;;;;;;5051618;28;20304;-55
2023/07/12 06:00:43;;;;;;;11.55;7.15;;;22.70;99.90;;;;;;5069034;28;20274;-55
2023/07/12 06:03:11;;;;;;;16.08;8.00;;;22.80;99.90;;;;;;5061552;28;20244;-55
2023/07/12 06:05:44;;;;;;;13.52;7.53;;;22.70;99.90;;;;;;5061511;28;20810;-55
2023/07/12 06:08:12;;;;;;;11.55;6.82;;;22.80;99.90;;;;;;5054389;28;20209;-56
2023/07/12 06:10:40;;;;;;;8.85;6.70;;;22.80;99.90;;;;;;5070132;28;20228;-53
2023/07/12 06:13:09;;;;;;;10.60;7.47;;;22.80;99.90;;;;;;5054390;28;20244;-58
2023/07/12 06:15:38;;;;;;;10.85;6.28;;;22.90;99.90;;;;;;5062570;28;20206;-55
2023/07/12 06:18:07;;;;;;;9.02;6.90;;;23.00;99.90;;;;;;5068526;28;20747;-54
2023/07/12 06:20:35;;;;;;;17.20;7.32;;;23.00;99.90;;;;;;5068652;28;20204;-55
2023/07/12 06:23:03;;;;;;;13.77;6.95;;;23.10;99.90;;;;;;5068095;28;20252;-55
2023/07/12 06:25:32;;;;;;;9.35;6.70;;;23.20;99.90;;;;;;5062102;28;20201;-56
2023/07/12 06:28:00;;;;;;;5.85;3.63;;;23.20;99.90;;;;;;5063746;28;20204;-56
2023/07/12 06:30:28;;;;;;;5.25;4.60;;;23.10;99.90;;;;;;5062534;28;20243;-53
2023/07/12 06:32:56;;;;;;;4.43;2.33;;;23.00;99.90;;;;;;5054152;28;20227;-55
2023/07/12 06:35:26;;;;;;;6.20;2.78;;;23.00;99.90;;;;;;5063164;28;20209;-55
2023/07/12 06:37:54;;;;;;;6.05;2.60;;;23.00;99.90;;;;;;5059285;28;20235;-55
2023/07/12 06:40:21;;;;;;;4.10;2.47;;;23.10;99.90;;;;;;5064148;28;20251;-56
2023/07/12 06:42:50;;;;;;;5.85;2.25;;;23.20;99.90;;;;;;5066922;28;20697;-56
2023/07/12 06:45:18;;;;;;;5.35;2.60;;;23.40;99.90;;;;;;5050755;28;20598;-57
2023/07/12 06:47:46;;;;;;;8.25;2.50;;;23.50;99.90;;;;;;5060692;28;20304;-55
2023/07/12 06:50:14;;;;;;;4.53;2.08;;;23.60;99.90;;;;;;5070924;28;20211;-54
2023/07/12 06:52:43;;;;;;;5.63;1.90;;;23.70;99.90;;;;;;5072105;28;20205;-54
2023/07/12 06:55:12;;;;;;;2.63;1.85;;;23.70;99.90;;;;;;5063190;28;20197;-53
2023/07/12 06:57:40;;;;;;;4.78;1.77;;;23.70;99.90;;;;;;5070443;28;20250;-54
2023/07/12 07:00:12;;;;;;;1.73;1.60;;;23.60;99.90;;;;;;5070600;28;20217;-54
2023/07/12 07:02:40;;;;;;;5.30;2.00;;;23.60;99.90;;;;;;5070049;28;20216;-55
2023/07/12 07:05:08;;;;;;;1.55;1.45;;;23.50;99.90;;;;;;5065572;28;20201;-53
2023/07/12 07:07:36;;;;;;;2.15;1.63;;;23.40;99.90;;;;;;5071991;28;20304;-54
2023/07/12 07:10:06;;;;;;;2.20;1.40;;;23.30;99.90;;;;;;5067278;28;20301;-53
2023/07/12 07:12:34;;;;;;;3.53;2.22;;;23.20;99.90;;;;;;5068185;28;20283;-55
2023/07/12 07:15:02;;;;;;;1.40;1.40;;;23.20;99.90;;;;;;5072554;28;20267;-54
2023/07/12 07:17:29;;;;;;;3.35;1.63;;;23.20;99.90;;;;;;5069787;28;20208;-56
2023/07/12 07:19:57;;;;;;;2.40;1.80;;;23.30;99.90;;;;;;5065388;28;20233;-55
2023/07/12 07:22:25;;;;;;;5.18;1.80;;;23.30;99.90;;;;;;5073164;28;20296;-54
2023/07/12 07:24:53;;;;;;;6.28;2.00;;;23.40;99.90;;;;;;5053941;28;21044;-54
2023/07/12 07:27:22;;;;;;;2.55;1.92;;;23.50;99.90;;;;;;5061809;28;20219;-56
2023/07/12 07:29:50;;;;;;;3.10;1.60;;;23.60;99.90;;;;;;5062768;28;20201;-53
2023/07/12 07:32:18;;;;;;;2.20;1.98;;;23.60;99.90;;;;;;5069799;28;20246;-53
2023/07/12 07:34:46;;;;;;;4.13;2.10;;;23.70;99.90;;;;;;5053581;28;20237;-55
2023/07/12 07:37:15;;;;;;;4.88;1.88;;;23.70;99.90;;;;;;5079177;28;20205;-52
2023/07/12 07:39:43;;;;;;;2.40;1.92;;;23.70;99.90;;;;;;5074384;28;20252;-53
2023/07/12 07:42:11;;;;;;;4.82;2.30;;;23.80;99.90;;;;;;5072558;28;20208;-52
2023/07/12 07:44:40;;;;;;;2.10;2.00;;;23.90;99.90;;;;;;5084506;22;20302;-54
2023/07/12 07:47:08;;;;;;;4.85;2.47;;;23.90;99.90;;;;;;5053232;28;20259;-56
2023/07/12 07:49:36;;;;;;;3.47;2.38;;;23.90;99.90;;;;;;5038078;28;20322;-54
2023/07/12 07:52:05;;;;;;;2.33;2.13;;;23.90;99.90;;;;;;5049460;28;20197;-55
2023/07/12 07:54:33;;;;;;;7.85;2.13;;;24.00;99.90;;;;;;5053765;28;20257;-54
2023/07/12 07:57:01;;;;;;;3.92;2.42;;;24.00;99.90;;;;;;5053736;28;20205;-55
2023/07/12 07:59:29;;;;;;;5.80;2.30;;;24.00;99.90;;;;;;5053838;28;20328;-55
2023/07/12 08:01:58;;;;;;;3.10;2.35;;;24.10;99.90;;;;;;5053086;28;20617;-53
2023/07/12 08:04:26;;;;;;;3.05;2.60;;;24.20;99.90;;;;;;5053682;28;20300;-54
2023/07/12 08:06:56;;;;;;;3.00;2.00;;;24.30;99.90;;;;;;5053727;28;20862;-54
2023/07/12 08:09:24;;;;;;;2.17;1.98;;;24.40;99.90;;;;;;5053556;28;20247;-55
2023/07/12 08:11:51;;;;;;;2.85;2.10;;;24.50;99.90;;;;;;5053709;28;20633;-55
2023/07/12 08:14:20;;;;;;;4.53;2.13;;;24.60;99.90;;;;;;5053470;28;20750;-56
2023/07/12 08:16:48;;;;;;;2.90;2.28;;;24.80;99.90;;;;;;5053459;28;20727;-55
2023/07/12 08:19:18;;;;;;;2.95;2.40;;;24.90;99.90;;;;;;5053454;28;20293;-56
2023/07/12 08:21:47;;;;;;;3.42;2.40;;;25.00;99.90;;;;;;5052767;28;20201;-55
2023/07/12 08:24:15;;;;;;;2.28;2.17;;;25.00;99.90;;;;;;5053471;28;20308;-56
2023/07/12 08:26:43;;;;;;;2.65;2.30;;;25.10;99.90;;;;;;5053301;28;20198;-57
2023/07/12 08:29:21;;;;;;;2.20;2.00;;;25.20;99.90;;;;;;5053521;28;20208;-56
2023/07/12 08:31:49;;;;;;;3.35;2.03;;;25.30;99.90;;;;;;5053442;28;20259;-56
2023/07/12 08:34:18;;;;;;;3.88;2.40;;;25.30;99.90;;;;;;5052886;28;20304;-56
2023/07/12 08:36:46;;;;;;;4.00;2.25;;;25.30;99.90;;;;;;5053416;28;20213;-56
2023/07/12 08:39:14;;;;;;;4.88;2.35;;;25.30;99.90;;;;;;5053195;28;20306;-56
2023/07/12 08:41:42;;;;;;;5.03;2.40;;;25.40;99.90;;;;;;5053410;28;20243;-55
2023/07/12 08:44:12;;;;;;;3.78;2.22;;;25.50;99.90;;;;;;5051269;28;20264;-54
2023/07/12 08:46:42;;;;;;;3.60;2.50;;;25.60;99.90;;;;;;5049269;28;20237;-56
2023/07/12 08:49:10;;;;;;;3.03;2.30;;;25.80;99.90;;;;;;5052284;28;20624;-54
2023/07/12 08:51:40;;;;;;;4.00;2.08;;;25.80;99.90;;;;;;5052626;28;20288;-54
2023/07/12 08:54:17;;;;;;;3.20;2.40;;;25.80;99.90;;;;;;5052979;28;20221;-54
2023/07/12 08:56:45;;;;;;;2.95;2.40;;;25.90;99.90;;;;;;5052511;28;20293;-55
2023/07/12 08:59:13;;;;;;;4.68;2.35;;;26.10;99.90;;;;;;5052661;28;20202;-56
2023/07/12 09:01:45;;;;;;;3.72;2.65;;;26.10;99.90;;;;;;5050133;28;20288;-56
2023/07/12 09:04:23;;;;;;;2.90;2.00;;;26.10;99.90;;;;;;5050866;28;20221;-55
2023/07/12 09:06:53;;;;;;;2.85;2.38;;;26.10;99.90;;;;;;5051193;28;20209;-55
2023/07/12 09:09:21;;;;;;;3.42;2.03;;;26.10;99.90;;;;;;5050932;28;20194;-55
2023/07/12 09:11:49;;;;;;;3.80;2.20;;;26.00;99.90;;;;;;5051255;28;20202;-56
2023/07/12 09:14:18;;;;;;;2.33;2.13;;;26.10;99.90;;;;;;5050430;28;20221;-55
2023/07/12 09:16:47;;;;;;;2.72;2.13;;;26.10;99.90;;;;;;5049958;28;20267;-56
2023/07/12 09:19:16;;;;;;;2.30;2.10;;;26.20;99.90;;;;;;5051394;28;20263;-55
2023/07/12 09:21:47;;;;;;;6.00;2.35;;;26.30;99.90;;;;;;5051666;28;20644;-55
2023/07/12 09:24:21;;;;;;;6.68;2.45;;;26.50;99.90;;;;;;5051991;28;20259;-54
2023/07/12 09:26:50;;;;;;;4.63;2.20;;;26.70;99.90;;;;;;5052330;28;20201;-55
2023/07/12 09:29:21;;;;;;;2.25;2.05;;;26.70;99.90;;;;;;5052316;28;20271;-55
2023/07/12 09:31:49;;;;;;;4.82;2.65;;;26.50;99.90;;;;;;5052226;28;20208;-56
2023/07/12 09:34:20;;;;;;;5.20;2.35;;;26.40;99.90;;;;;;5050714;28;20229;-55
2023/07/12 09:36:54;;;;;;;2.92;2.20;;;26.50;99.90;;;;;;5051671;28;20280;-58
2023/07/12 09:39:25;;;;;;;5.20;2.28;;;26.70;99.90;;;;;;5051858;28;20694;-58
2023/07/12 09:41:55;;;;;;;4.50;2.97;;;27.00;99.90;;;;;;5051724;28;20213;-59
2023/07/12 09:44:23;;;;;;;3.25;2.05;;;27.30;99.90;;;;;;5051742;28;20312;-58
2023/07/12 09:46:53;;;;;;;3.10;2.20;;;27.50;99.90;;;;;;5051712;28;20304;-58
2023/07/12 09:49:23;;;;;;;4.30;2.38;;;27.40;99.90;;;;;;5051507;28;20224;-58
2023/07/12 09:51:57;;;;;;;5.07;2.72;;;27.50;99.90;;;;;;5051711;28;20233;-58
2023/07/12 09:54:30;;;;;;;2.80;2.60;;;27.40;99.90;;;;;;5051718;28;20221;-57
2023/07/12 09:57:01;;;;;;;3.65;2.75;;;27.50;99.90;;;;;;5051666;28;20665;-58
2023/07/12 09:59:34;;;;;;;3.80;2.17;;;27.50;99.90;;;;;;5051001;28;20244;-58
2023/07/12 10:02:12;;;;;;;4.18;2.30;;;27.40;99.90;;;;;;5051587;28;20314;-56
2023/07/12 10:04:42;;;;;;;2.83;2.53;;;27.40;99.90;;;;;;5051511;28;20274;-58
2023/07/12 10:07:16;;;;;;;2.20;2.10;;;27.60;99.90;;;;;;5051673;28;20756;-58
2023/07/12 10:09:47;;;;;;;4.57;2.17;;;28.00;99.90;;;;;;5051555;28;20232;-58
2023/07/12 10:12:19;;;;;;;3.72;2.53;;;28.50;99.90;;;;;;5051571;28;20244;-58
2023/07/12 10:14:47;;;;;;;3.95;2.40;;;28.80;99.90;;;;;;5051477;28;20312;-56
2023/07/12 10:17:18;;;;;;;4.13;2.42;;;28.50;99.90;;;;;;5051461;28;20296;-58
2023/07/12 10:19:47;;;;;;;2.80;2.58;;;28.10;99.90;;;;;;5051519;28;20198;-58
2023/07/12 10:22:18;;;;;;;4.18;2.58;;;27.70;99.90;;;;;;5051572;28;20229;-58
2023/07/12 10:24:50;;;;;;;3.47;2.50;;;27.40;99.90;;;;;;5050551;28;20221;-58
2023/07/12 10:27:19;;;;;;;2.63;1.90;;;27.30;99.90;;;;;;5051687;28;20288;-57
2023/07/12 10:29:50;;;;;;;6.13;2.85;;;27.20;99.90;;;;;;5051437;28;20276;-58
2023/07/12 10:32:22;;;;;;;2.10;1.92;;;27.30;99.90;;;;;;5051449;28;20233;-58
2023/07/12 10:34:51;;;;;;;5.05;1.70;;;27.70;99.90;;;;;;5050405;28;20218;-58
2023/07/12 10:37:23;;;;;;;3.13;1.70;;;28.20;99.90;;;;;;5050584;28;20202;-58
2023/07/12 10:39:52;;;;;;;1.52;1.42;;;28.70;99.90;;;;;;5050723;28;20219;-57
2023/07/12 10:42:23;;;;;;;1.70;1.27;;;28.90;99.90;;;;;;5051206;28;20229;-58
2023/07/12 10:44:53;;;;;;;3.53;1.25;;;29.00;99.90;;;;;;5050607;28;20228;-58
2023/07/12 10:47:21;;;;;;;5.22;1.10;;;29.30;99.90;;;;;;5051330;28;20247;-57
2023/07/12 10:49:53;;;;;;;2.67;1.38;;;29.50;99.90;;;;;;5051104;28;20201;-59
2023/07/12 10:52:28;;;;;;;1.00;1.00;;;29.70;99.90;;;;;;5051369;28;20197;-58
2023/07/12 10:55:18;;;;;;;1.20;1.08;;;29.80;99.90;;;;;;5050955;28;20269;-59
2023/07/12 10:57:47;;;;;;;2.25;1.20;;;29.90;99.90;;;;;;5035582;28;20288;-58
2023/07/12 11:00:22;;;;;;;1.60;1.08;;;29.80;99.90;;;;;;5050632;28;20654;-58
2023/07/12 11:03:00;;;;;;;0.95;0.95;;;29.60;99.90;;;;;;5051186;28;20232;-58
2023/07/12 11:05:39;;;;;;;1.58;1.30;;;29.70;99.90;;;;;;5050711;28;20194;-56
2023/07/12 11:08:39;;;;;;;1.23;1.00;;;30.20;99.90;;;;;;5050919;28;20205;-58
2023/07/12 11:11:43;;;;;;;1.25;1.10;;;30.40;99.90;;;;;;5047497;28;20197;-59
2023/07/12 11:14:19;;;;;;;3.05;0.88;;;30.00;99.90;;;;;;5042583;28;20225;-57
2023/07/12 11:16:51;;;;;;;4.30;1.00;;;30.20;99.90;;;;;;5049978;28;20205;-59
2023/07/12 11:19:37;;;;;;;2.30;1.13;;;30.30;99.90;;;;;;5049613;28;20634;-58
2023/07/12 11:22:11;;;;;;;3.90;1.30;;;30.10;99.90;;;;;;5043169;28;20217;-58
2023/07/12 11:24:41;;;;;;;2.70;1.30;;;29.80;99.90;;;;;;5050381;28;20253;-58
2023/07/12 11:27:30;;;;;;;1.40;1.23;;;29.60;99.90;;;;;;5050779;28;20213;-59
2023/07/12 11:30:16;;;;;;;3.35;1.20;;;29.20;99.90;;;;;;5050244;28;20208;-58
2023/07/12 11:32:46;;;;;;;2.00;1.63;;;29.10;99.90;;;;;;5050718;28;20293;-58
2023/07/12 11:35:15;;;;;;;2.30;1.13;;;28.90;99.90;;;;;;5050217;28;20301;-57
2023/07/12 11:37:46;;;;;;;5.65;1.33;;;28.80;99.90;;;;;;5053705;28;20251;-57
2023/07/12 11:40:17;;;;;;;1.95;1.15;;;28.90;99.90;;;;;;5054520;28;20280;-58
2023/07/12 11:42:47;;;;;;;1.35;1.10;;;29.00;99.90;;;;;;5054296;28;20304;-57
2023/07/12 11:45:17;;;;;;;4.93;1.00;;;29.20;99.90;;;;;;5053537;28;20316;-57
2023/07/12 11:47:46;;;;;;;1.77;0.90;;;29.70;99.90;;;;;;5054191;28;20197;-56
2023/07/12 11:50:19;;;;;;;1.17;1.08;;;30.10;99.90;;;;;;5053930;28;20229;-57
2023/07/12 11:52:47;;;;;;;1.92;1.33;;;30.30;99.90;;;;;;5047633;28;20579;-58
2023/07/12 11:55:16;;;;;;;1.60;1.00;;;30.50;99.90;;;;;;5053693;28;20256;-57
2023/07/12 11:57:44;;;;;;;3.63;1.08;;;30.50;99.90;;;;;;5053023;28;20209;-59
2023/07/12 12:00:17;;;;;;;4.60;1.10;;;30.60;99.90;;;;;;5053678;28;20193;-57
2023/07/12 12:02:49;;;;;;;1.45;1.35;;;30.90;99.90;;;;;;5053610;28;20260;-58
2023/07/12 12:05:21;;;;;;;3.40;0.95;;;31.00;99.90;;;;;;5053499;28;20731;-59
2023/07/12 12:07:49;;;;;;;2.38;0.90;;;31.00;99.90;;;;;;5052848;28;20208;-58
2023/07/12 12:10:21;;;;;;;1.33;1.23;;;31.20;99.90;;;;;;5053695;28;20197;-58
2023/07/12 12:12:49;;;;;;;5.05;1.00;;;31.20;99.90;;;;;;5053599;28;20233;-59
2023/07/12 12:15:20;;;;;;;1.25;1.10;;;31.60;99.90;;;;;;5052973;28;20270;-58
2023/07/12 12:17:48;;;;;;;1.60;0.80;;;31.90;99.10;;;;;;5053331;28;20233;-58
2023/07/12 12:20:18;;;;;;;1.85;0.85;;;32.10;98.90;;;;;;5053514;28;20205;-58
2023/07/12 12:22:51;;;;;;;1.10;1.00;;;32.00;97.90;;;;;;5053325;28;20279;-58
2023/07/12 12:25:20;;;;;;;1.30;1.20;;;31.40;98.80;;;;;;5052789;28;20221;-58
2023/07/12 12:27:49;;;;;;;1.00;1.00;;;31.00;98.90;;;;;;5053068;28;20229;-58
2023/07/12 12:30:20;;;;;;;2.13;1.20;;;30.80;99.30;;;;;;5053029;28;20201;-58
2023/07/12 12:33:02;;;;;;;2.63;1.00;;;31.10;99.90;;;;;;5053229;28;20669;-58
2023/07/12 12:35:30;;;;;;;1.00;0.90;;;31.60;98.10;;;;;;5052863;28;20280;-59
2023/07/12 12:37:59;;;;;;;8.00;1.45;;;31.90;98.20;;;;;;5053172;28;20661;-57
2023/07/12 12:40:27;;;;;;;3.17;1.30;;;31.80;97.40;;;;;;5050991;28;20752;-57
2023/07/12 12:42:59;;;;;;;2.20;1.05;;;31.30;97.10;;;;;;5052610;28;20696;-58
2023/07/12 12:45:32;;;;;;;1.70;1.40;;;31.20;97.70;;;;;;5052818;28;20209;-58
2023/07/12 12:48:00;;;;;;;2.25;1.48;;;31.00;98.20;;;;;;5052748;28;20700;-58
2023/07/12 12:50:37;;;;;;;3.13;1.10;;;30.90;98.40;;;;;;5052770;28;20197;-58
2023/07/12 12:53:11;;;;;;;1.33;1.33;;;30.70;98.20;;;;;;5052870;28;20635;-58
2023/07/12 12:55:42;;;;;;;4.50;1.88;;;30.90;98.80;;;;;;5037048;28;20635;-59
2023/07/12 12:58:12;;;;;;;3.58;1.48;;;30.80;98.30;;;;;;5052874;28;20280;-59